createdAt,value
2023-02-13T00:00:44.426Z,46.15
2023-02-13T00:03:11.088Z,42.20
2023-02-13T00:05:37.774Z,47.55
2023-02-13T00:08:06.905Z,43.05
2023-02-13T00:10:36.614Z,42.42
2023-02-13T00:13:03.327Z,44.05
2023-02-13T00:15:30.261Z,44.08
2023-02-13T00:17:57.032Z,49.67
2023-02-13T00:20:23.883Z,41.38
2023-02-13T00:22:50.667Z,44.15
2023-02-13T00:25:19.608Z,42.40
2023-02-13T00:27:46.386Z,43.75
2023-02-13T00:30:15.704Z,41.85
2023-02-13T00:32:42.346Z,40.33
2023-02-13T00:35:11.768Z,42.70
2023-02-13T00:37:38.426Z,42.92
2023-02-13T00:40:08.084Z,48.25
2023-02-13T00:42:34.741Z,44.75
2023-02-13T00:45:01.353Z,40.80
2023-02-13T00:47:28.084Z,45.13
2023-02-13T00:49:54.772Z,41.97
2023-02-13T00:52:21.382Z,47.70
2023-02-13T00:54:48.280Z,44.38
2023-02-13T00:57:14.958Z,46.40
2023-02-13T00:59:41.610Z,44.92
2023-02-13T01:02:08.366Z,41.40
2023-02-13T01:04:35.095Z,42.22
2023-02-13T01:07:01.768Z,42.72
2023-02-13T01:09:30.866Z,49.75
2023-02-13T01:11:57.602Z,47.42
2023-02-13T01:14:24.310Z,41.42
2023-02-13T01:16:55.821Z,45.05
2023-02-13T01:19:22.482Z,47.70
2023-02-13T01:21:49.086Z,43.85
2023-02-13T01:24:15.756Z,43.65
2023-02-13T01:26:42.462Z,41.83
2023-02-13T01:29:12.394Z,40.17
2023-02-13T01:31:39.170Z,44.47
2023-02-13T01:34:05.964Z,44.63
2023-02-13T01:36:32.628Z,45.65
2023-02-13T01:38:59.554Z,42.95
2023-02-13T01:41:29.980Z,40.58
2023-02-13T01:44:01.473Z,48.42
2023-02-13T01:46:38.666Z,42.72
2023-02-13T01:49:25.906Z,48.08
2023-02-13T01:51:58.846Z,47.70
2023-02-13T01:54:31.624Z,41.17
2023-02-13T01:57:05.745Z,44.38
2023-02-13T01:59:43.636Z,46.75
2023-02-13T02:02:10.670Z,47.50
2023-02-13T02:04:39.656Z,47.38
2023-02-13T02:07:16.438Z,46.35
2023-02-13T02:09:44.634Z,48.28
2023-02-13T02:12:31.973Z,48.78
2023-02-13T02:15:01.490Z,51.67
2023-02-13T02:17:28.149Z,46.75
2023-02-13T02:20:39.120Z,51.83
2023-02-13T02:23:08.546Z,50.80
2023-02-13T02:26:25.624Z,49.03
2023-02-13T02:29:20.450Z,54.10
2023-02-13T02:32:19.793Z,47.92
2023-02-13T02:35:08.430Z,45.15
2023-02-13T02:37:59.351Z,52.22
2023-02-13T02:40:59.278Z,46.60
2023-02-13T02:43:51.110Z,43.65
2023-02-13T02:47:01.785Z,47.05
2023-02-13T02:49:50.133Z,48.53
2023-02-13T02:52:22.148Z,46.47
2023-02-13T02:55:06.557Z,47.15
2023-02-13T02:57:58.361Z,48.92
2023-02-13T03:00:46.618Z,54.17
2023-02-13T03:03:37.395Z,46.60
2023-02-13T03:06:16.732Z,49.15
2023-02-13T03:09:10.030Z,49.10
2023-02-13T03:11:57.057Z,49.97
2023-02-13T03:14:26.484Z,48.97
2023-02-13T03:17:11.971Z,48.33
2023-02-13T03:20:14.194Z,45.35
2023-02-13T03:23:08.610Z,49.05
2023-02-13T03:28:44.530Z,50.67
2023-02-13T03:31:34.542Z,46.03
2023-02-13T03:34:25.074Z,52.95
2023-02-13T03:37:26.284Z,48.22
2023-02-13T03:40:18.136Z,51.50
2023-02-13T03:42:55.083Z,54.40
2023-02-13T03:45:45.914Z,49.10
2023-02-13T03:48:46.233Z,50.58
2023-02-13T03:51:19.152Z,51.20
2023-02-13T03:53:52.159Z,48.00
2023-02-13T03:56:40.617Z,50.78
2023-02-13T03:59:16.201Z,53.90
2023-02-13T04:01:58.474Z,54.50
2023-02-13T04:04:48.424Z,51.15
2023-02-13T04:07:29.458Z,51.88
2023-02-13T04:10:10.775Z,51.05
2023-02-13T04:12:52.981Z,50.17
2023-02-13T04:15:22.415Z,52.92
2023-02-13T04:18:05.147Z,49.00
2023-02-13T04:20:32.729Z,55.22
2023-02-13T04:23:05.675Z,49.42
2023-02-13T04:25:32.429Z,51.67
2023-02-13T04:27:59.253Z,50.75
2023-02-13T04:30:26.037Z,48.70
2023-02-13T04:32:52.866Z,52.30
2023-02-13T04:35:19.847Z,51.35
2023-02-13T04:37:46.520Z,48.47
2023-02-13T04:40:13.279Z,54.40
2023-02-13T04:42:39.939Z,51.13
2023-02-13T04:45:06.890Z,48.40
2023-02-13T04:47:33.565Z,51.75
2023-02-13T04:50:00.228Z,50.17
2023-02-13T04:52:27.030Z,51.05
2023-02-13T04:54:54.173Z,49.28
2023-02-13T04:57:23.035Z,50.28
2023-02-13T04:59:52.134Z,48.88
2023-02-13T05:02:18.749Z,50.42
2023-02-13T05:04:47.986Z,51.55
2023-02-13T05:07:14.676Z,51.22
2023-02-13T05:09:43.936Z,47.22
2023-02-13T05:12:10.554Z,52.63
2023-02-13T05:14:37.240Z,47.53
2023-02-13T05:17:06.403Z,46.55
2023-02-13T05:19:33.023Z,51.00
2023-02-13T05:22:18.461Z,51.90
2023-02-13T05:24:47.604Z,49.17
2023-02-13T05:27:14.274Z,47.00
2023-02-13T05:29:40.935Z,48.42
2023-02-13T05:32:07.645Z,52.10
2023-02-13T05:34:34.293Z,48.03
2023-02-13T05:37:01.121Z,50.92
2023-02-13T05:39:30.186Z,50.92
2023-02-13T05:41:56.787Z,51.67
2023-02-13T05:44:23.399Z,51.17
2023-02-13T05:46:50.064Z,46.75
2023-02-13T05:49:16.789Z,49.60
2023-02-13T05:51:43.844Z,49.60
2023-02-13T05:54:10.614Z,47.22
2023-02-13T05:56:39.814Z,54.10
2023-02-13T05:59:06.764Z,47.33
2023-02-13T06:01:33.473Z,43.65
2023-02-13T06:04:03.979Z,44.08
2023-02-13T06:06:30.932Z,49.47
2023-02-13T06:08:59.732Z,47.60
2023-02-13T06:11:28.506Z,50.45
2023-02-13T06:13:55.204Z,48.55
2023-02-13T06:16:22.568Z,47.25
2023-02-13T06:18:51.654Z,53.42
2023-02-13T06:21:18.349Z,53.78
2023-02-13T06:23:45.115Z,49.22
2023-02-13T06:26:14.068Z,57.00
2023-02-13T06:28:40.770Z,54.72
2023-02-13T06:31:07.628Z,52.80
2023-02-13T06:33:34.493Z,50.55
2023-02-13T06:36:01.138Z,69.53
2023-02-13T06:38:30.612Z,57.70
2023-02-13T06:41:01.762Z,56.30
2023-02-13T06:43:28.420Z,50.15
2023-02-13T06:45:55.088Z,50.78
2023-02-13T06:48:21.932Z,53.67
2023-02-13T06:50:48.758Z,45.17
2023-02-13T06:53:19.996Z,45.42
2023-02-13T06:55:49.389Z,47.00
2023-02-13T06:58:16.040Z,52.78
2023-02-13T07:00:42.751Z,45.70
2023-02-13T07:03:10.702Z,42.92
2023-02-13T07:05:43.242Z,48.90
2023-02-13T07:08:11.548Z,50.05
2023-02-13T07:10:41.857Z,42.90
2023-02-13T07:13:09.086Z,45.65
2023-02-13T07:15:39.109Z,46.28
2023-02-13T07:18:06.677Z,48.45
2023-02-13T07:20:34.001Z,45.83
2023-02-13T07:23:02.238Z,50.38
2023-02-13T07:25:29.552Z,50.15
2023-02-13T07:28:00.834Z,42.17
2023-02-13T07:30:27.618Z,46.10
2023-02-13T07:32:59.528Z,46.50
2023-02-13T07:35:26.237Z,51.40
2023-02-13T07:37:56.649Z,43.40
2023-02-13T07:40:23.442Z,43.78
2023-02-13T07:42:50.223Z,49.00
2023-02-13T07:45:16.995Z,44.78
2023-02-13T07:47:44.271Z,45.35
2023-02-13T07:50:11.750Z,45.08
2023-02-13T07:52:38.520Z,51.38
2023-02-13T07:55:06.316Z,44.05
2023-02-13T07:57:33.871Z,49.17
2023-02-13T08:00:03.074Z,46.75
2023-02-13T08:02:32.005Z,47.63
2023-02-13T08:05:03.359Z,46.85
2023-02-13T08:07:32.156Z,49.38
2023-02-13T08:10:17.314Z,48.90
2023-02-13T08:12:46.987Z,46.40
2023-02-13T08:15:15.702Z,47.78
2023-02-13T08:17:42.319Z,48.35
2023-02-13T08:20:09.758Z,47.67
2023-02-13T08:22:39.604Z,50.13
2023-02-13T08:25:07.397Z,46.28
2023-02-13T08:27:34.341Z,47.80
2023-02-13T08:30:01.910Z,44.17
2023-02-13T08:32:28.792Z,50.75
2023-02-13T08:34:55.450Z,47.13
2023-02-13T08:37:22.229Z,52.92
2023-02-13T08:39:48.824Z,47.63
2023-02-13T08:42:20.428Z,46.78
2023-02-13T08:44:47.121Z,48.90
2023-02-13T08:47:13.805Z,55.80
2023-02-13T08:49:40.532Z,49.05
2023-02-13T08:52:07.197Z,54.13
2023-02-13T08:54:39.026Z,45.65
2023-02-13T08:57:05.742Z,51.40
2023-02-13T08:59:34.937Z,47.17
2023-02-13T09:02:01.661Z,48.05
2023-02-13T09:04:28.351Z,47.92
2023-02-13T09:06:55.807Z,51.15
2023-02-13T09:09:22.730Z,43.88
2023-02-13T09:11:52.438Z,45.17
2023-02-13T09:14:19.283Z,46.70
2023-02-13T09:16:45.939Z,49.13
2023-02-13T09:19:14.910Z,47.17
2023-02-13T09:21:41.646Z,47.90
2023-02-13T09:24:10.539Z,47.78
2023-02-13T09:26:37.580Z,42.25
2023-02-13T09:29:04.328Z,39.38
2023-02-13T09:31:31.162Z,43.55
2023-02-13T09:34:00.408Z,46.65
2023-02-13T09:36:27.042Z,48.78
2023-02-13T09:38:55.897Z,44.83
2023-02-13T09:41:34.152Z,47.42
2023-02-13T09:44:38.911Z,46.92
2023-02-13T09:47:30.882Z,45.40
2023-02-13T09:50:06.409Z,43.38
2023-02-13T09:52:38.169Z,43.63
2023-02-13T09:55:25.592Z,43.45
2023-02-13T09:58:01.601Z,41.60
2023-02-13T10:00:46.348Z,42.75
2023-02-13T10:03:22.504Z,39.40
2023-02-13T10:06:00.602Z,40.72
2023-02-13T10:08:27.442Z,43.45
2023-02-13T10:11:16.899Z,41.92
2023-02-13T10:14:05.929Z,41.17
2023-02-13T10:16:45.730Z,43.03
2023-02-13T10:19:35.952Z,44.35
2023-02-13T10:22:10.046Z,39.10
2023-02-13T10:24:57.473Z,44.38
2023-02-13T10:27:28.059Z,44.15
2023-02-13T10:30:05.593Z,45.53
2023-02-13T10:32:38.477Z,43.33
2023-02-13T10:35:19.362Z,41.63
2023-02-13T10:37:51.691Z,51.40
2023-02-13T10:40:19.514Z,43.78
2023-02-13T10:43:08.712Z,47.13
2023-02-13T10:46:04.055Z,41.97
2023-02-13T10:49:00.924Z,37.97
2023-02-13T10:51:44.190Z,42.45
2023-02-13T10:54:47.775Z,39.47
2023-02-13T10:58:18.956Z,41.72
2023-02-13T11:00:48.251Z,42.03
2023-02-13T11:03:24.483Z,35.95
2023-02-13T11:05:52.465Z,33.05
2023-02-13T11:08:25.583Z,34.55
2023-02-13T11:10:52.997Z,36.50
2023-02-13T11:13:23.090Z,33.70
2023-02-13T11:16:03.972Z,35.97
2023-02-13T11:18:37.793Z,33.20
2023-02-13T11:21:14.243Z,30.73
2023-02-13T11:23:49.472Z,34.60
2023-02-13T11:26:29.265Z,29.10
2023-02-13T11:29:01.902Z,31.42
2023-02-13T11:31:36.972Z,29.98
2023-02-13T11:34:33.933Z,31.48
2023-02-13T11:37:12.611Z,27.58
2023-02-13T11:39:43.730Z,24.60
2023-02-13T11:42:28.782Z,25.50
2023-02-13T11:45:20.348Z,25.40
2023-02-13T11:47:47.540Z,25.92
2023-02-13T11:50:27.915Z,21.50
2023-02-13T11:53:03.341Z,20.65
2023-02-13T11:55:42.755Z,21.90
2023-02-13T11:58:12.276Z,20.65
2023-02-13T12:00:41.741Z,23.10
2023-02-13T12:03:33.429Z,22.00
2023-02-13T12:06:05.478Z,25.08
2023-02-13T12:08:35.026Z,31.52
2023-02-13T12:11:06.592Z,21.92
2023-02-13T12:13:38.950Z,19.60
2023-02-13T12:16:30.218Z,20.70
2023-02-13T12:19:00.113Z,21.20
2023-02-13T12:22:02.681Z,22.48
2023-02-13T12:24:55.479Z,18.95
2023-02-13T12:27:43.857Z,19.92
2023-02-13T12:30:29.252Z,18.55
2023-02-13T12:33:04.829Z,21.48
2023-02-13T12:35:43.924Z,17.85
2023-02-13T12:38:43.245Z,18.48
2023-02-13T12:41:25.954Z,15.60
2023-02-13T12:44:27.912Z,13.50
2023-02-13T12:47:27.208Z,13.15
2023-02-13T12:50:30.456Z,16.25
2023-02-13T12:53:29.613Z,13.75
2023-02-13T12:56:37.817Z,16.75
2023-02-13T12:59:07.544Z,12.48
2023-02-13T13:02:07.282Z,14.15
2023-02-13T13:04:55.531Z,14.00
2023-02-13T13:08:00.047Z,16.77
2023-02-13T13:10:52.525Z,12.70
2023-02-13T13:13:28.290Z,11.50
2023-02-13T13:16:06.665Z,10.43
2023-02-13T13:18:45.322Z,12.48
2023-02-13T13:21:24.399Z,12.18
2023-02-13T13:24:04.787Z,11.23
2023-02-13T13:26:46.446Z,10.52
2023-02-13T13:29:21.230Z,9.88
2023-02-13T13:32:02.243Z,10.38
2023-02-13T13:34:31.498Z,10.52
2023-02-13T13:37:19.818Z,12.73
2023-02-13T13:40:19.968Z,12.48
2023-02-13T13:43:02.172Z,18.10
2023-02-13T13:45:40.764Z,10.38
2023-02-13T13:48:47.671Z,12.63
2023-02-13T13:51:18.792Z,11.80
2023-02-13T13:54:03.498Z,12.55
2023-02-13T13:56:53.371Z,12.60
2023-02-13T13:59:51.596Z,12.90
2023-02-13T14:02:21.274Z,11.57
2023-02-13T14:05:28.140Z,14.48
2023-02-13T14:08:04.177Z,11.50
2023-02-13T14:10:33.906Z,18.05
2023-02-13T14:13:07.742Z,14.18
2023-02-13T14:15:42.300Z,15.05
2023-02-13T14:18:20.190Z,12.63
2023-02-13T14:20:51.559Z,11.98
2023-02-13T14:23:26.960Z,11.73
2023-02-13T14:26:18.704Z,12.30
2023-02-13T14:28:51.544Z,11.10
2023-02-13T14:31:30.113Z,11.57
2023-02-13T14:34:05.348Z,13.63
2023-02-13T14:36:42.158Z,13.57
2023-02-13T14:39:23.885Z,10.32
2023-02-13T14:41:58.759Z,10.93
2023-02-13T14:44:45.219Z,14.13
2023-02-13T14:47:23.133Z,15.13
2023-02-13T14:49:51.083Z,9.10
2023-02-13T14:52:26.418Z,9.27
2023-02-13T14:55:03.621Z,14.85
2023-02-13T14:57:41.752Z,9.75
2023-02-13T15:00:45.738Z,22.95
2023-02-13T15:03:34.428Z,12.68
2023-02-13T15:06:05.748Z,10.27
2023-02-13T15:08:36.720Z,12.98
2023-02-13T15:11:03.974Z,11.48
2023-02-13T15:13:37.417Z,11.45
2023-02-13T15:18:36.941Z,12.23
2023-02-13T15:21:04.174Z,15.60
2023-02-13T15:23:33.533Z,9.20
2023-02-13T15:26:05.886Z,12.80
2023-02-13T15:28:33.814Z,10.57
2023-02-13T15:31:24.319Z,9.13
2023-02-13T15:33:51.775Z,12.38
2023-02-13T15:36:21.631Z,10.27
2023-02-13T15:38:48.315Z,10.82
2023-02-13T15:41:23.566Z,10.48
2023-02-13T15:43:55.826Z,13.00
2023-02-13T15:46:27.426Z,10.68
2023-02-13T15:48:55.481Z,11.68
2023-02-13T15:51:25.424Z,9.85
2023-02-13T15:53:56.573Z,17.88
2023-02-13T15:56:24.396Z,22.55
2023-02-13T15:58:52.577Z,20.92
2023-02-13T16:01:19.620Z,31.13
2023-02-13T16:03:59.080Z,14.38
2023-02-13T16:06:26.716Z,19.30
2023-02-13T16:08:58.127Z,12.32
2023-02-13T16:11:40.798Z,33.17
2023-02-13T16:14:27.764Z,16.80
2023-02-13T16:17:17.636Z,17.77
2023-02-13T16:19:59.732Z,12.93
2023-02-13T16:22:37.842Z,26.50
2023-02-13T16:25:15.813Z,15.88
2023-02-13T16:28:03.656Z,12.55
2023-02-13T16:30:41.985Z,21.90
2023-02-13T16:33:16.114Z,28.20
2023-02-13T16:35:45.885Z,23.02
2023-02-13T16:38:31.624Z,22.73
2023-02-13T16:41:19.700Z,22.38
2023-02-13T16:43:48.075Z,28.52
2023-02-13T16:46:29.702Z,30.63
2023-02-13T16:48:56.385Z,26.58
2023-02-13T16:51:44.154Z,30.33
2023-02-13T16:54:10.798Z,42.28
2023-02-13T16:56:47.891Z,25.33
2023-02-13T16:59:30.019Z,30.15
2023-02-13T17:02:03.774Z,30.38
2023-02-13T17:04:33.117Z,20.70
2023-02-13T17:06:59.884Z,24.40
2023-02-13T17:09:31.338Z,37.13
2023-02-13T17:11:58.032Z,26.27
2023-02-13T17:14:24.723Z,27.77
2023-02-13T17:16:51.563Z,28.15
2023-02-13T17:19:18.253Z,24.17
2023-02-13T17:21:45.077Z,22.42
2023-02-13T17:24:19.496Z,19.77
2023-02-13T17:26:46.196Z,40.30
2023-02-13T17:29:12.910Z,20.88
2023-02-13T17:31:39.962Z,31.00
2023-02-13T17:34:06.802Z,24.25
2023-02-13T17:36:33.559Z,27.25
2023-02-13T17:39:00.213Z,21.58
2023-02-13T17:41:29.789Z,35.08
2023-02-13T17:43:56.770Z,20.25
2023-02-13T17:46:23.570Z,23.15
2023-02-13T17:48:50.336Z,26.00
2023-02-13T17:51:17.052Z,30.45
2023-02-13T17:53:43.794Z,26.98
2023-02-13T17:56:10.518Z,22.33
2023-02-13T17:58:39.429Z,19.83
2023-02-13T18:01:06.131Z,21.98
2023-02-13T18:03:35.386Z,21.67
2023-02-13T18:06:02.096Z,22.25
2023-02-13T18:08:29.025Z,27.05
2023-02-13T18:10:55.965Z,21.83
2023-02-13T18:13:22.955Z,27.65
2023-02-13T18:15:49.742Z,29.00
2023-02-13T18:18:17.661Z,28.67
2023-02-13T18:20:48.289Z,31.15
2023-02-13T18:23:15.042Z,27.95
2023-02-13T18:25:41.812Z,32.90
2023-02-13T18:28:08.884Z,32.90
2023-02-13T18:30:41.321Z,34.53
2023-02-13T18:33:08.050Z,32.47
2023-02-13T18:35:37.326Z,31.00
2023-02-13T18:38:04.056Z,30.55
2023-02-13T18:40:30.762Z,36.65
2023-02-13T18:42:57.488Z,34.78
2023-02-13T18:45:24.228Z,30.70
2023-02-13T18:47:53.138Z,37.90
2023-02-13T18:50:24.439Z,35.92
2023-02-13T18:52:51.115Z,36.58
2023-02-13T18:55:19.975Z,36.55
2023-02-13T18:57:52.369Z,39.88
2023-02-13T19:00:23.186Z,40.45
2023-02-13T19:02:49.986Z,35.05
2023-02-13T19:05:16.719Z,33.70
2023-02-13T19:07:45.884Z,34.88
2023-02-13T19:10:12.650Z,36.78
2023-02-13T19:12:39.320Z,32.03
2023-02-13T19:15:06.350Z,33.63
2023-02-13T19:17:34.855Z,34.80
2023-02-13T19:20:06.821Z,33.65
2023-02-13T19:22:35.971Z,33.08
2023-02-13T19:25:02.933Z,31.88
2023-02-13T19:27:29.635Z,36.85
2023-02-13T19:29:59.106Z,35.80
2023-02-13T19:32:25.801Z,31.75
2023-02-13T19:34:52.952Z,37.00
2023-02-13T19:37:19.628Z,33.40
2023-02-13T19:39:46.348Z,31.80
2023-02-13T19:42:13.045Z,33.08
2023-02-13T19:44:39.826Z,34.20
2023-02-13T19:47:06.565Z,25.73
2023-02-13T19:49:33.315Z,28.40
2023-02-13T19:52:00.742Z,31.02
2023-02-13T19:54:27.469Z,27.77
2023-02-13T19:57:00.133Z,25.33
2023-02-13T19:59:27.711Z,26.50
2023-02-13T20:01:57.058Z,28.98
2023-02-13T20:04:23.932Z,26.23
2023-02-13T20:06:51.045Z,24.58
2023-02-13T20:09:17.746Z,26.92
2023-02-13T20:11:46.777Z,26.50
2023-02-13T20:14:15.164Z,24.58
2023-02-13T20:16:42.918Z,31.38
2023-02-13T20:19:11.668Z,27.45
2023-02-13T20:21:42.006Z,26.17
2023-02-13T20:24:12.739Z,25.98
2023-02-13T20:26:42.530Z,23.80
2023-02-13T20:29:09.594Z,24.25
2023-02-13T20:31:36.844Z,27.95
2023-02-13T20:34:08.620Z,25.88
2023-02-13T20:36:35.299Z,26.67
2023-02-13T20:39:04.614Z,42.85
2023-02-13T20:41:34.497Z,21.50
2023-02-13T20:44:03.945Z,22.25
2023-02-13T20:46:31.918Z,25.52
2023-02-13T20:48:59.045Z,25.60
2023-02-13T20:51:28.456Z,24.05
2023-02-13T20:53:58.913Z,28.98
2023-02-13T20:56:26.548Z,32.45
2023-02-13T20:58:58.544Z,26.60
2023-02-13T21:01:28.743Z,27.02
2023-02-13T21:03:59.024Z,28.65
2023-02-13T21:06:31.891Z,26.77
2023-02-13T21:08:58.866Z,29.90
2023-02-13T21:11:28.253Z,24.50
2023-02-13T21:13:56.491Z,26.73
2023-02-13T21:16:25.973Z,26.00
2023-02-13T21:18:55.382Z,25.65
2023-02-13T21:21:26.280Z,28.13
2023-02-13T21:23:54.470Z,29.73
2023-02-13T21:26:21.769Z,30.83
2023-02-13T21:28:49.800Z,25.10
2023-02-13T21:31:24.140Z,25.33
2023-02-13T21:33:53.725Z,27.13
2023-02-13T21:36:22.961Z,27.65
2023-02-13T21:38:49.607Z,26.20
2023-02-13T21:41:18.597Z,26.38
2023-02-13T21:43:48.515Z,27.30
2023-02-13T21:46:24.952Z,28.77
2023-02-13T21:49:12.920Z,27.77
2023-02-13T21:51:40.031Z,26.15
2023-02-13T21:54:06.703Z,26.80
2023-02-13T21:56:38.826Z,27.27
2023-02-13T21:59:05.803Z,26.73
2023-02-13T22:01:35.637Z,26.30
2023-02-13T22:04:06.999Z,25.73
2023-02-13T22:06:36.094Z,29.42
2023-02-13T22:09:08.291Z,31.08
2023-02-13T22:11:35.857Z,31.05
2023-02-13T22:14:04.016Z,24.02
2023-02-13T22:16:34.442Z,29.30
2023-02-13T22:19:03.802Z,28.48
2023-02-13T22:21:32.255Z,28.45
2023-02-13T22:23:59.404Z,27.98
2023-02-13T22:26:29.114Z,27.48
2023-02-13T22:29:00.259Z,33.78
2023-02-13T22:31:27.459Z,25.30
2023-02-13T22:34:05.718Z,29.88
2023-02-13T22:36:34.531Z,26.60
2023-02-13T22:39:01.500Z,27.50
2023-02-13T22:41:30.913Z,27.55
2023-02-13T22:43:57.959Z,30.67
2023-02-13T22:46:29.615Z,29.75
2023-02-13T22:48:56.796Z,29.83
2023-02-13T22:51:29.710Z,28.08
2023-02-13T22:53:59.544Z,27.83
2023-02-13T22:56:28.194Z,30.17
2023-02-13T22:58:57.712Z,30.92
2023-02-13T23:01:26.072Z,31.15
2023-02-13T23:03:53.055Z,26.20
2023-02-13T23:06:22.716Z,26.77
2023-02-13T23:08:52.471Z,27.10
2023-02-13T23:11:39.454Z,30.58
2023-02-13T23:14:08.443Z,32.28
2023-02-13T23:16:53.660Z,30.30
2023-02-13T23:19:25.329Z,31.02
2023-02-13T23:21:51.984Z,32.60
2023-02-13T23:24:19.779Z,31.25
2023-02-13T23:26:46.540Z,31.73
2023-02-13T23:29:13.378Z,33.45
2023-02-13T23:31:40.248Z,32.70
2023-02-13T23:34:07.199Z,32.85
2023-02-13T23:36:34.851Z,33.75
2023-02-13T23:39:01.481Z,30.25
2023-02-13T23:41:28.132Z,31.15
2023-02-13T23:43:54.929Z,30.80
2023-02-13T23:46:23.930Z,30.45
2023-02-13T23:48:50.788Z,28.80
2023-02-13T23:51:18.390Z,30.67
2023-02-13T23:53:47.673Z,32.83
2023-02-13T23:56:14.845Z,31.13
2023-02-13T23:58:41.467Z,31.48
